createdAt,value
2018-09-17T00:00:49.850Z,63.99
2018-09-17T00:03:17.561Z,63.98
2018-09-17T00:05:45.275Z,64.70
2018-09-17T00:08:12.969Z,64.15
2018-09-17T00:10:40.657Z,65.17
2018-09-17T00:13:08.392Z,64.90
2018-09-17T00:15:36.110Z,64.35
2018-09-17T00:18:03.771Z,63.90
2018-09-17T00:23:11.076Z,63.86
2018-09-17T00:25:38.782Z,63.68
2018-09-17T00:28:06.462Z,64.25
2018-09-17T00:30:34.094Z,63.44
2018-09-17T00:33:01.748Z,64.22
2018-09-17T00:35:29.394Z,64.41
2018-09-17T00:37:56.957Z,64.26
2018-09-17T00:40:24.588Z,64.01
2018-09-17T00:42:52.249Z,63.74
2018-09-17T00:45:19.885Z,63.65
2018-09-17T00:47:47.545Z,64.30
2018-09-17T00:50:15.313Z,64.02
2018-09-17T00:52:43.077Z,64.29
2018-09-17T00:55:10.762Z,64.24
2018-09-17T00:57:38.559Z,64.29
2018-09-17T01:00:06.365Z,64.85
2018-09-17T01:02:34.057Z,64.43
2018-09-17T01:05:01.784Z,64.49
2018-09-17T01:07:29.510Z,64.73
2018-09-17T01:09:57.090Z,64.79
2018-09-17T01:12:24.738Z,65.30
2018-09-17T01:14:52.399Z,65.58
2018-09-17T01:17:20.089Z,65.56
2018-09-17T01:19:47.764Z,65.32
2018-09-17T01:22:15.384Z,65.62
2018-09-17T01:24:43.012Z,65.46
2018-09-17T01:27:10.697Z,65.90
2018-09-17T01:29:38.348Z,65.67
2018-09-17T01:32:06.122Z,65.59
2018-09-17T01:34:33.810Z,65.63
2018-09-17T01:37:01.475Z,64.97
2018-09-17T01:39:29.172Z,64.87
2018-09-17T01:41:56.808Z,65.13
2018-09-17T01:44:24.515Z,64.65
2018-09-17T01:46:52.160Z,64.93
2018-09-17T01:49:19.876Z,65.39
2018-09-17T01:51:47.561Z,65.68
2018-09-17T01:54:15.181Z,65.14
2018-09-17T01:56:42.841Z,65.98
2018-09-17T01:59:10.601Z,66.07
2018-09-17T02:01:38.254Z,66.16
2018-09-17T02:04:05.923Z,66.16
2018-09-17T02:06:33.526Z,66.55
2018-09-17T02:09:01.264Z,66.53
2018-09-17T02:11:28.933Z,66.27
2018-09-17T02:13:56.624Z,66.75
2018-09-17T02:16:24.245Z,66.61
2018-09-17T02:18:51.937Z,67.14
2018-09-17T02:21:19.651Z,67.02
2018-09-17T02:23:47.394Z,67.61
2018-09-17T02:26:15.067Z,67.31
2018-09-17T02:28:42.666Z,66.85
2018-09-17T02:31:10.322Z,67.57
2018-09-17T02:33:37.945Z,66.85
2018-09-17T02:36:06.528Z,66.91
2018-09-17T02:38:34.171Z,67.38
2018-09-17T02:41:01.816Z,67.21
2018-09-17T02:43:29.508Z,67.36
2018-09-17T02:45:57.138Z,67.03
2018-09-17T02:48:24.854Z,67.28
2018-09-17T02:50:52.478Z,68.11
2018-09-17T02:53:20.142Z,68.30
2018-09-17T02:55:47.873Z,68.01
2018-09-17T02:58:15.572Z,67.52
2018-09-17T03:00:43.266Z,68.11
2018-09-17T03:03:10.966Z,67.94
2018-09-17T03:05:38.632Z,67.52
2018-09-17T03:08:06.258Z,67.69
2018-09-17T03:10:34.004Z,67.90
2018-09-17T03:13:01.739Z,67.50
2018-09-17T03:15:48.173Z,67.52
2018-09-17T03:18:21.435Z,67.68
2018-09-17T03:20:49.309Z,67.88
2018-09-17T03:23:16.972Z,67.65
2018-09-17T03:25:44.632Z,67.27
2018-09-17T03:28:12.257Z,67.17
2018-09-17T03:30:39.959Z,66.56
2018-09-17T03:33:07.661Z,66.43
2018-09-17T03:35:35.277Z,66.33
2018-09-17T03:38:26.494Z,66.88
2018-09-17T03:40:54.154Z,66.29
2018-09-17T03:43:21.754Z,66.78
2018-09-17T03:45:49.727Z,67.05
2018-09-17T03:48:17.582Z,66.90
2018-09-17T03:50:45.515Z,67.30
2018-09-17T03:53:13.284Z,67.88
2018-09-17T03:55:41.054Z,67.78
2018-09-17T03:58:08.735Z,67.92
2018-09-17T04:00:36.474Z,68.70
2018-09-17T04:03:04.170Z,67.91
2018-09-17T04:05:31.830Z,68.79
2018-09-17T04:07:59.563Z,69.24
2018-09-17T04:10:27.212Z,69.20
2018-09-17T04:12:55.640Z,69.33
2018-09-17T04:15:23.364Z,69.16
2018-09-17T04:17:51.054Z,69.85
2018-09-17T04:20:18.771Z,69.45
2018-09-17T04:22:46.431Z,70.09
2018-09-17T04:25:14.505Z,70.13
2018-09-17T04:27:42.242Z,70.16
2018-09-17T04:30:10.002Z,69.95
2018-09-17T04:32:37.861Z,70.11
2018-09-17T04:35:06.615Z,70.81
2018-09-17T04:37:35.207Z,70.53
2018-09-17T04:40:02.901Z,70.52
2018-09-17T04:42:30.543Z,70.62
2018-09-17T04:44:58.285Z,70.37
2018-09-17T04:47:25.976Z,70.42
2018-09-17T04:49:53.805Z,70.39
2018-09-17T04:52:21.454Z,69.88
2018-09-17T04:54:49.104Z,70.03
2018-09-17T04:57:16.872Z,69.53
2018-09-17T04:59:44.429Z,69.31
2018-09-17T05:02:12.139Z,69.54
2018-09-17T05:04:39.882Z,68.73
2018-09-17T05:07:07.611Z,68.40
2018-09-17T05:09:35.414Z,68.74
2018-09-17T05:12:05.695Z,68.40
2018-09-17T05:14:33.369Z,68.39
2018-09-17T05:17:01.195Z,68.58
2018-09-17T05:19:28.922Z,68.10
2018-09-17T05:21:56.603Z,67.83
2018-09-17T05:24:24.252Z,67.31
2018-09-17T05:26:51.958Z,68.01
2018-09-17T05:29:19.581Z,67.67
2018-09-17T05:31:47.272Z,67.40
2018-09-17T05:34:14.944Z,67.18
2018-09-17T05:36:42.669Z,66.90
2018-09-17T05:39:11.068Z,66.83
2018-09-17T05:41:38.865Z,67.25
2018-09-17T05:44:06.745Z,67.03
2018-09-17T05:46:34.898Z,66.80
2018-09-17T05:49:02.689Z,66.37
2018-09-17T05:51:30.337Z,66.66
2018-09-17T05:53:58.132Z,66.00
2018-09-17T05:56:25.789Z,66.79
2018-09-17T05:58:53.643Z,66.82
2018-09-17T06:01:21.408Z,66.72
2018-09-17T06:03:49.139Z,65.36
2018-09-17T06:06:16.899Z,64.96
2018-09-17T06:08:44.534Z,64.19
2018-09-17T06:11:12.192Z,63.90
2018-09-17T06:13:39.880Z,64.38
2018-09-17T06:16:07.542Z,63.71
2018-09-17T06:18:35.595Z,63.00
2018-09-17T06:21:03.762Z,62.24
2018-09-17T06:23:31.429Z,61.21
2018-09-17T06:25:59.051Z,60.46
2018-09-17T06:28:26.676Z,59.59
2018-09-17T06:30:54.341Z,58.66
2018-09-17T06:33:22.007Z,58.34
2018-09-17T06:35:49.663Z,56.94
2018-09-17T06:38:17.287Z,55.56
2018-09-17T06:40:44.955Z,55.21
2018-09-17T06:43:12.637Z,55.08
2018-09-17T06:45:40.374Z,54.41
2018-09-17T06:48:08.050Z,53.35
2018-09-17T06:50:35.703Z,52.90
2018-09-17T06:53:03.598Z,52.34
2018-09-17T06:55:31.967Z,51.65
2018-09-17T06:57:59.644Z,50.97
2018-09-17T07:00:27.330Z,50.33
2018-09-17T07:02:56.092Z,49.78
2018-09-17T07:05:23.829Z,49.69
2018-09-17T07:07:51.518Z,49.35
2018-09-17T07:10:19.259Z,49.42
2018-09-17T07:12:47.144Z,48.50
2018-09-17T07:15:14.786Z,48.58
2018-09-17T07:17:42.989Z,48.93
2018-09-17T07:20:10.696Z,48.07
2018-09-17T07:22:38.341Z,48.08
2018-09-17T07:25:06.955Z,47.51
2018-09-17T07:27:34.497Z,47.06
2018-09-17T07:30:02.189Z,47.00
2018-09-17T07:32:29.905Z,47.93
2018-09-17T07:34:57.542Z,47.18
2018-09-17T07:37:25.230Z,46.59
2018-09-17T07:39:52.886Z,46.30
2018-09-17T07:42:20.597Z,46.80
2018-09-17T07:44:48.278Z,46.98
2018-09-17T07:47:15.977Z,46.52
2018-09-17T07:49:43.654Z,45.78
2018-09-17T07:52:11.317Z,45.19
2018-09-17T07:54:38.937Z,44.84
2018-09-17T07:57:06.788Z,45.38
2018-09-17T07:59:34.479Z,44.52
2018-09-17T08:02:02.098Z,45.05
2018-09-17T08:04:29.989Z,44.50
2018-09-17T08:06:57.625Z,44.63
2018-09-17T08:09:25.266Z,43.96
2018-09-17T08:11:53.053Z,43.88
2018-09-17T08:14:20.679Z,44.55
2018-09-17T08:16:48.482Z,43.06
2018-09-17T08:19:16.141Z,42.88
2018-09-17T08:21:43.809Z,42.65
2018-09-17T08:24:11.463Z,42.28
2018-09-17T08:26:39.141Z,41.98
2018-09-17T08:29:07.042Z,41.69
2018-09-17T08:31:34.686Z,42.24
2018-09-17T08:34:02.336Z,41.91
2018-09-17T08:36:30.017Z,41.89
2018-09-17T08:38:57.859Z,41.54
2018-09-17T08:41:25.507Z,41.32
2018-09-17T08:43:53.202Z,40.51
2018-09-17T08:46:20.866Z,40.65
2018-09-17T08:48:48.521Z,41.34
2018-09-17T08:51:16.202Z,41.28
2018-09-17T08:53:43.794Z,40.14
2018-09-17T08:56:17.391Z,40.38
2018-09-17T08:58:50.994Z,40.85
2018-09-17T09:01:24.216Z,39.91
2018-09-17T09:03:57.925Z,39.51
2018-09-17T09:06:28.574Z,39.31
2018-09-17T09:08:56.221Z,39.13
2018-09-17T09:11:29.578Z,38.54
2018-09-17T09:14:01.850Z,38.33
2018-09-17T09:16:29.474Z,37.06
2018-09-17T09:18:57.171Z,36.53
2018-09-17T09:21:25.293Z,36.67
2018-09-17T09:23:53.005Z,35.87
2018-09-17T09:26:20.782Z,35.64
2018-09-17T09:28:48.429Z,35.87
2018-09-17T09:31:16.054Z,35.21
2018-09-17T09:33:43.688Z,35.09
2018-09-17T09:36:11.396Z,34.73
2018-09-17T09:38:39.065Z,35.00
2018-09-17T09:41:06.822Z,35.03
2018-09-17T09:43:34.491Z,35.36
2018-09-17T09:46:02.338Z,33.51
2018-09-17T09:48:30.000Z,33.33
2018-09-17T09:50:57.624Z,32.06
2018-09-17T09:53:25.465Z,31.98
2018-09-17T09:55:53.156Z,30.87
2018-09-17T09:58:20.772Z,31.26
2018-09-17T10:00:54.281Z,30.12
2018-09-17T10:03:26.547Z,30.92
2018-09-17T10:05:54.181Z,31.17
2018-09-17T10:08:21.875Z,31.04
2018-09-17T10:10:55.408Z,30.95
2018-09-17T10:13:28.733Z,30.45
2018-09-17T10:15:57.220Z,30.66
2018-09-17T10:18:30.638Z,27.49
2018-09-17T10:20:58.906Z,27.16
2018-09-17T10:23:26.759Z,27.50
2018-09-17T10:25:54.420Z,27.34
2018-09-17T10:28:22.339Z,25.97
2018-09-17T10:30:49.984Z,25.95
2018-09-17T10:33:17.849Z,26.24
2018-09-17T10:35:45.561Z,25.44
2018-09-17T10:38:13.261Z,24.30
2018-09-17T10:40:40.948Z,25.26
2018-09-17T10:43:08.672Z,23.78
2018-09-17T10:45:36.645Z,23.85
2018-09-17T10:48:04.375Z,23.14
2018-09-17T10:50:32.063Z,23.33
2018-09-17T10:52:59.801Z,22.33
2018-09-17T10:55:27.505Z,21.84
2018-09-17T10:57:55.133Z,21.47
2018-09-17T11:00:23.325Z,22.37
2018-09-17T11:02:51.159Z,21.75
2018-09-17T11:05:18.783Z,22.43
2018-09-17T11:07:46.551Z,21.24
2018-09-17T11:10:14.244Z,20.34
2018-09-17T11:12:42.053Z,21.86
2018-09-17T11:15:09.781Z,21.18
2018-09-17T11:17:37.503Z,21.34
2018-09-17T11:20:06.129Z,20.66
2018-09-17T11:22:33.816Z,19.96
2018-09-17T11:25:01.459Z,20.42
2018-09-17T11:27:29.181Z,19.51
2018-09-17T11:29:56.874Z,19.69
2018-09-17T11:32:24.603Z,18.73
2018-09-17T11:34:52.313Z,17.68
2018-09-17T11:37:20.000Z,15.48
2018-09-17T11:39:47.692Z,15.78
2018-09-17T11:42:15.396Z,16.12
2018-09-17T11:44:43.044Z,15.77
2018-09-17T11:47:10.841Z,15.05
2018-09-17T11:49:38.682Z,15.08
2018-09-17T11:52:06.446Z,13.87
2018-09-17T11:54:34.178Z,12.56
2018-09-17T11:57:01.896Z,12.38
2018-09-17T11:59:29.615Z,11.74
2018-09-17T12:02:03.620Z,11.07
2018-09-17T12:04:36.056Z,9.62
2018-09-17T12:07:09.519Z,8.80
2018-09-17T12:09:38.223Z,7.94
2018-09-17T12:12:05.934Z,8.30
2018-09-17T12:14:33.653Z,8.48
2018-09-17T12:17:01.323Z,8.20
2018-09-17T12:19:29.014Z,9.29
2018-09-17T12:21:56.734Z,8.22
2018-09-17T12:24:24.366Z,7.32
2018-09-17T12:26:52.075Z,7.17
2018-09-17T12:29:19.748Z,6.76
2018-09-17T12:31:47.500Z,6.40
2018-09-17T12:34:15.111Z,6.31
2018-09-17T12:36:42.750Z,6.24
2018-09-17T12:39:11.543Z,6.90
2018-09-17T12:41:39.190Z,6.88
2018-09-17T12:44:06.874Z,6.77
2018-09-17T12:46:34.504Z,6.38
2018-09-17T12:49:02.153Z,7.10
2018-09-17T12:51:29.812Z,7.35
2018-09-17T12:53:57.568Z,6.72
2018-09-17T12:56:25.256Z,6.78
2018-09-17T12:58:52.916Z,6.79
2018-09-17T13:01:20.760Z,6.50
2018-09-17T13:03:48.595Z,6.79
2018-09-17T13:06:16.207Z,6.86
2018-09-17T13:08:43.924Z,7.78
2018-09-17T13:11:11.705Z,7.42
2018-09-17T13:13:39.471Z,6.20
2018-09-17T13:16:07.819Z,5.54
2018-09-17T13:18:35.596Z,6.54
2018-09-17T13:21:03.378Z,7.54
2018-09-17T13:23:32.860Z,6.98
2018-09-17T13:26:00.513Z,6.50
2018-09-17T13:28:28.185Z,6.63
2018-09-17T13:30:55.809Z,6.21
2018-09-17T13:33:23.629Z,5.61
2018-09-17T13:35:51.611Z,6.35
2018-09-17T13:38:20.813Z,5.77
2018-09-17T13:40:48.451Z,5.04
2018-09-17T13:43:16.122Z,5.37
2018-09-17T13:45:43.779Z,5.62
2018-09-17T13:48:11.414Z,6.17
2018-09-17T13:50:39.145Z,5.66
2018-09-17T13:53:06.784Z,7.01
2018-09-17T13:55:34.494Z,7.09
2018-09-17T13:58:02.197Z,7.74
2018-09-17T14:00:29.938Z,7.35
2018-09-17T14:02:57.615Z,7.85
2018-09-17T14:05:25.380Z,7.25
2018-09-17T14:07:53.115Z,5.59
2018-09-17T14:10:20.993Z,5.04
2018-09-17T14:12:48.639Z,3.82
2018-09-17T14:15:16.376Z,3.73
2018-09-17T14:17:44.138Z,4.63
2018-09-17T14:20:11.796Z,4.50
2018-09-17T14:22:39.598Z,4.72
2018-09-17T14:25:07.395Z,5.85
2018-09-17T14:27:35.086Z,6.59
2018-09-17T14:30:02.789Z,6.43
2018-09-17T14:32:36.169Z,6.26
2018-09-17T14:35:03.926Z,4.71
2018-09-17T14:37:31.671Z,5.57
2018-09-17T14:39:59.386Z,5.19
2018-09-17T14:42:27.144Z,7.04
2018-09-17T14:44:54.771Z,8.09
2018-09-17T14:47:22.435Z,8.20
2018-09-17T14:49:50.132Z,9.02
2018-09-17T14:52:17.844Z,9.04
2018-09-17T14:54:45.654Z,8.54
2018-09-17T14:57:13.271Z,9.37
2018-09-17T14:59:41.016Z,8.41
2018-09-17T15:02:08.935Z,8.66
2018-09-17T15:04:36.554Z,8.52
2018-09-17T15:07:04.236Z,8.16
2018-09-17T15:09:31.871Z,8.39
2018-09-17T15:11:59.590Z,8.15
2018-09-17T15:14:27.317Z,8.39
2018-09-17T15:16:54.955Z,8.53
2018-09-17T15:19:22.578Z,8.33
2018-09-17T15:21:50.337Z,8.38
2018-09-17T15:24:17.970Z,8.82
2018-09-17T15:26:46.186Z,8.97
2018-09-17T15:29:13.894Z,8.05
2018-09-17T15:31:41.513Z,7.98
2018-09-17T15:34:09.168Z,8.44
2018-09-17T15:36:36.829Z,9.98
2018-09-17T15:39:08.860Z,9.89
2018-09-17T15:41:37.144Z,9.48
2018-09-17T15:44:05.002Z,9.71
2018-09-17T15:46:33.233Z,9.72
2018-09-17T15:49:00.910Z,10.22
2018-09-17T15:51:28.617Z,11.60
2018-09-17T15:53:56.336Z,11.55
2018-09-17T15:56:24.400Z,13.17
2018-09-17T15:58:52.214Z,14.68
2018-09-17T16:01:20.018Z,15.70
2018-09-17T16:03:47.738Z,16.11
2018-09-17T16:06:15.469Z,17.39
2018-09-17T16:08:43.225Z,17.45
2018-09-17T16:11:11.043Z,18.56
2018-09-17T16:13:38.856Z,21.46
2018-09-17T16:16:06.536Z,20.72
2018-09-17T16:18:34.307Z,21.67
2018-09-17T16:21:01.979Z,23.37
2018-09-17T16:23:29.719Z,23.82
2018-09-17T16:25:57.449Z,24.28
2018-09-17T16:28:25.188Z,25.65
2018-09-17T16:30:52.933Z,25.57
2018-09-17T16:33:20.890Z,26.68
2018-09-17T16:35:48.658Z,27.20
2018-09-17T16:38:16.457Z,27.32
2018-09-17T16:40:44.187Z,28.41
2018-09-17T16:43:11.933Z,27.68
2018-09-17T16:45:39.712Z,28.39
2018-09-17T16:48:07.434Z,28.97
2018-09-17T16:50:35.131Z,29.25
2018-09-17T16:53:02.986Z,29.29
2018-09-17T16:55:30.655Z,29.68
2018-09-17T16:57:58.517Z,30.64
2018-09-17T17:00:26.234Z,30.43
2018-09-17T17:02:53.988Z,31.68
2018-09-17T17:05:22.420Z,31.98
2018-09-17T17:07:51.150Z,31.64
2018-09-17T17:10:19.386Z,32.00
2018-09-17T17:12:47.053Z,32.80
2018-09-17T17:15:14.749Z,33.24
2018-09-17T17:17:42.417Z,33.88
2018-09-17T17:20:10.230Z,33.52
2018-09-17T17:22:37.976Z,33.78
2018-09-17T17:25:05.836Z,34.42
2018-09-17T17:27:33.607Z,34.54
2018-09-17T17:30:01.646Z,35.65
2018-09-17T17:32:29.719Z,35.79
2018-09-17T17:34:58.610Z,36.43
2018-09-17T17:37:26.611Z,36.80
2018-09-17T17:39:54.397Z,37.23
2018-09-17T17:42:22.089Z,37.18
2018-09-17T17:44:49.807Z,36.81
2018-09-17T17:47:17.494Z,37.15
2018-09-17T17:49:45.181Z,37.94
2018-09-17T17:52:12.938Z,37.75
2018-09-17T17:54:40.737Z,37.86
2018-09-17T17:57:08.323Z,37.92
2018-09-17T17:59:35.989Z,38.45
2018-09-17T18:02:03.662Z,38.67
2018-09-17T18:04:31.403Z,38.28
2018-09-17T18:06:59.064Z,38.33
2018-09-17T18:09:26.836Z,39.05
2018-09-17T18:11:54.469Z,38.95
2018-09-17T18:14:22.086Z,38.51
2018-09-17T18:16:49.747Z,38.30
2018-09-17T18:19:17.452Z,38.74
2018-09-17T18:21:45.281Z,39.32
2018-09-17T18:24:12.873Z,39.63
2018-09-17T18:26:40.810Z,39.28
2018-09-17T18:29:08.556Z,39.08
2018-09-17T18:31:36.379Z,39.37
2018-09-17T18:34:04.329Z,39.14
2018-09-17T18:36:31.992Z,39.13
2018-09-17T18:38:59.754Z,40.06
2018-09-17T18:41:27.383Z,39.37
2018-09-17T18:43:55.072Z,39.32
2018-09-17T18:46:22.783Z,40.18
2018-09-17T18:48:50.559Z,40.15
2018-09-17T18:51:18.998Z,40.32
2018-09-17T18:53:47.103Z,40.32
2018-09-17T18:56:16.320Z,41.01
2018-09-17T18:58:46.211Z,42.25
2018-09-17T19:01:16.776Z,41.65
2018-09-17T19:03:44.469Z,43.04
2018-09-17T19:06:12.384Z,43.62
2018-09-17T19:08:40.522Z,44.06
2018-09-17T19:11:08.320Z,44.61
2018-09-17T19:13:36.195Z,43.95
2018-09-17T19:16:03.928Z,45.03
2018-09-17T19:18:31.673Z,45.65
2018-09-17T19:21:06.946Z,45.21
2018-09-17T19:23:40.258Z,45.89
2018-09-17T19:26:07.957Z,46.13
2018-09-17T19:28:41.440Z,47.09
2018-09-17T19:31:09.242Z,46.76
2018-09-17T19:33:36.852Z,46.99
2018-09-17T19:36:04.970Z,47.42
2018-09-17T19:38:39.067Z,47.74
2018-09-17T19:41:07.095Z,48.37
2018-09-17T19:43:34.849Z,48.58
2018-09-17T19:46:08.342Z,49.24
2018-09-17T19:48:36.049Z,49.91
2018-09-17T19:51:09.901Z,50.18
2018-09-17T19:53:37.656Z,50.49
2018-09-17T19:56:05.633Z,50.50
2018-09-17T19:59:38.622Z,50.95
2018-09-17T20:02:06.865Z,50.83
2018-09-17T20:04:40.673Z,51.19
2018-09-17T20:07:08.651Z,51.52
2018-09-17T20:09:37.027Z,50.69
2018-09-17T20:12:05.436Z,51.02
2018-09-17T20:14:33.309Z,52.07
2018-09-17T20:17:01.344Z,51.88
2018-09-17T20:19:29.112Z,51.48
2018-09-17T20:21:56.880Z,52.28
2018-09-17T20:24:24.675Z,52.01
2018-09-17T20:26:52.344Z,52.52
2018-09-17T20:29:20.105Z,51.94
2018-09-17T20:31:47.818Z,52.30
2018-09-17T20:34:15.448Z,52.37
2018-09-17T20:36:43.284Z,52.04
2018-09-17T20:39:11.026Z,52.45
2018-09-17T20:41:39.913Z,52.66
2018-09-17T20:44:07.627Z,52.58
2018-09-17T20:46:35.435Z,52.93
2018-09-17T20:49:04.103Z,53.43
2018-09-17T20:51:31.723Z,54.21
2018-09-17T20:53:59.780Z,54.52
2018-09-17T20:56:27.544Z,54.31
2018-09-17T20:58:55.214Z,53.68
2018-09-17T21:01:22.932Z,53.97
2018-09-17T21:03:50.532Z,54.63
2018-09-17T21:06:18.276Z,55.09
2018-09-17T21:08:45.948Z,54.59
2018-09-17T21:11:13.677Z,54.11
2018-09-17T21:13:41.476Z,53.86
2018-09-17T21:16:09.276Z,53.98
2018-09-17T21:18:36.890Z,53.49
2018-09-17T21:21:04.528Z,54.40
2018-09-17T21:23:32.317Z,53.41
2018-09-17T21:26:00.017Z,53.50
2018-09-17T21:28:27.758Z,54.06
2018-09-17T21:30:55.408Z,54.60
2018-09-17T21:33:23.161Z,55.92
2018-09-17T21:35:50.889Z,56.63
2018-09-17T21:38:18.541Z,56.70
2018-09-17T21:40:46.288Z,57.10
2018-09-17T21:43:14.970Z,57.54
2018-09-17T21:45:42.691Z,58.14
2018-09-17T21:48:10.368Z,58.34
2018-09-17T21:50:37.972Z,57.97
2018-09-17T21:53:05.822Z,58.04
2018-09-17T21:55:33.532Z,58.43
2018-09-17T21:58:01.165Z,58.62
2018-09-17T22:00:33.432Z,58.14
2018-09-17T22:03:01.025Z,58.13
2018-09-17T22:05:28.647Z,58.44
2018-09-17T22:07:56.885Z,58.36
2018-09-17T22:10:24.556Z,59.28
2018-09-17T22:12:52.263Z,59.12
2018-09-17T22:15:20.888Z,58.78
2018-09-17T22:17:48.643Z,59.02
2018-09-17T22:20:16.326Z,59.62
2018-09-17T22:22:44.014Z,59.47
2018-09-17T22:25:11.621Z,59.59
2018-09-17T22:27:39.345Z,59.67
2018-09-17T22:30:07.082Z,60.26
2018-09-17T22:32:34.743Z,60.09
2018-09-17T22:35:02.582Z,60.46
2018-09-17T22:37:30.277Z,60.23
2018-09-17T22:39:57.979Z,60.08
2018-09-17T22:42:26.023Z,60.25
2018-09-17T22:44:53.640Z,60.68
2018-09-17T22:47:21.366Z,60.28
2018-09-17T22:49:49.068Z,60.39
2018-09-17T22:52:16.735Z,59.87
2018-09-17T22:54:44.419Z,60.56
2018-09-17T22:57:12.178Z,60.01
2018-09-17T22:59:39.957Z,60.81
2018-09-17T23:02:07.587Z,60.42
2018-09-17T23:04:35.271Z,60.98
2018-09-17T23:07:02.941Z,60.42
2018-09-17T23:09:30.601Z,61.04
2018-09-17T23:11:58.305Z,61.38
2018-09-17T23:14:26.201Z,61.86
2018-09-17T23:16:53.901Z,61.78
2018-09-17T23:19:22.038Z,62.11
2018-09-17T23:21:49.750Z,62.37
2018-09-17T23:24:17.466Z,62.26
2018-09-17T23:26:45.153Z,62.77
2018-09-17T23:29:12.766Z,62.21
2018-09-17T23:31:40.404Z,62.33
2018-09-17T23:34:08.119Z,62.71
2018-09-17T23:36:35.793Z,62.27
2018-09-17T23:39:06.523Z,62.37
2018-09-17T23:41:34.139Z,62.20
2018-09-17T23:44:01.833Z,62.11
2018-09-17T23:46:29.457Z,60.69
2018-09-17T23:48:57.095Z,60.11
2018-09-17T23:51:24.668Z,59.36
2018-09-17T23:53:52.412Z,59.34
2018-09-17T23:56:20.052Z,59.17
2018-09-17T23:58:47.700Z,59.36
